sensor_id;sensor_type;location;lat;lon;timestamp;pressure;altitude;pressure_sealevel;temperature;humidity
15195;BME280;7698;42.478;23.756;2023-02-20T00:01:23;93520.13;;;9.76;64.97
15195;BME280;7698;42.478;23.756;2023-02-20T00:03:50;93523.00;;;9.75;64.80
15195;BME280;7698;42.478;23.756;2023-02-20T00:06:18;93530.44;;;9.73;64.79
15195;BME280;7698;42.478;23.756;2023-02-20T00:08:45;93540.72;;;9.69;65.42
15195;BME280;7698;42.478;23.756;2023-02-20T00:11:12;93544.66;;;9.67;65.69
15195;BME280;7698;42.478;23.756;2023-02-20T00:13:44;93544.88;;;9.65;66.39
15195;BME280;7698;42.478;23.756;2023-02-20T00:16:11;93547.78;;;9.64;66.59
15195;BME280;7698;42.478;23.756;2023-02-20T00:18:38;93542.91;;;9.61;66.17
15195;BME280;7698;42.478;23.756;2023-02-20T00:21:05;93548.94;;;9.56;66.81
15195;BME280;7698;42.478;23.756;2023-02-20T00:23:33;93552.28;;;9.52;68.01
15195;BME280;7698;42.478;23.756;2023-02-20T00:26:01;93550.88;;;9.49;68.72
15195;BME280;7698;42.478;23.756;2023-02-20T00:28:27;93559.69;;;9.49;68.73
15195;BME280;7698;42.478;23.756;2023-02-20T00:30:55;93551.09;;;9.47;69.21
15195;BME280;7698;42.478;23.756;2023-02-20T00:33:22;93556.06;;;9.44;69.19
15195;BME280;7698;42.478;23.756;2023-02-20T00:35:49;93560.22;;;9.40;69.54
15195;BME280;7698;42.478;23.756;2023-02-20T00:38:16;93559.25;;;9.34;69.69
15195;BME280;7698;42.478;23.756;2023-02-20T00:40:45;93571.41;;;9.30;70.51
15195;BME280;7698;42.478;23.756;2023-02-20T00:43:12;93563.31;;;9.25;70.20
15195;BME280;7698;42.478;23.756;2023-02-20T00:45:38;93563.97;;;9.21;71.34
15195;BME280;7698;42.478;23.756;2023-02-20T00:48:05;93568.13;;;9.16;71.57
15195;BME280;7698;42.478;23.756;2023-02-20T00:50:32;93573.28;;;9.11;71.97
15195;BME280;7698;42.478;23.756;2023-02-20T00:52:59;93562.50;;;9.06;72.64
15195;BME280;7698;42.478;23.756;2023-02-20T00:55:26;93560.53;;;9.02;73.04
15195;BME280;7698;42.478;23.756;2023-02-20T00:57:54;93552.75;;;9.00;74.37
15195;BME280;7698;42.478;23.756;2023-02-20T01:00:23;93551.34;;;8.98;74.36
15195;BME280;7698;42.478;23.756;2023-02-20T01:02:50;93553.66;;;8.94;74.69
15195;BME280;7698;42.478;23.756;2023-02-20T01:05:17;93562.75;;;8.87;75.57
15195;BME280;7698;42.478;23.756;2023-02-20T01:07:44;93551.56;;;8.78;76.52
15195;BME280;7698;42.478;23.756;2023-02-20T01:10:11;93567.41;;;8.73;77.14
15195;BME280;7698;42.478;23.756;2023-02-20T01:12:39;93560.53;;;8.65;76.94
15195;BME280;7698;42.478;23.756;2023-02-20T01:15:08;93560.16;;;8.62;78.45
15195;BME280;7698;42.478;23.756;2023-02-20T01:17:36;93552.38;;;8.60;79.26
15195;BME280;7698;42.478;23.756;2023-02-20T01:20:03;93546.69;;;8.57;79.35
15195;BME280;7698;42.478;23.756;2023-02-20T01:22:30;93542.25;;;8.51;79.26
15195;BME280;7698;42.478;23.756;2023-02-20T01:24:57;93558.53;;;8.42;80.11
15195;BME280;7698;42.478;23.756;2023-02-20T01:27:24;93561.25;;;8.36;80.68
15195;BME280;7698;42.478;23.756;2023-02-20T01:29:51;93559.59;;;8.35;81.65
15195;BME280;7698;42.478;23.756;2023-02-20T01:32:19;93558.78;;;8.34;82.58
15195;BME280;7698;42.478;23.756;2023-02-20T01:34:46;93560.44;;;8.35;83.24
15195;BME280;7698;42.478;23.756;2023-02-20T01:37:13;93563.09;;;8.35;82.40
15195;BME280;7698;42.478;23.756;2023-02-20T01:39:40;93568.41;;;8.35;83.99
15195;BME280;7698;42.478;23.756;2023-02-20T01:42:10;93569.44;;;8.34;83.96
15195;BME280;7698;42.478;23.756;2023-02-20T01:44:42;93578.44;;;8.33;83.86
15195;BME280;7698;42.478;23.756;2023-02-20T01:47:09;93589.50;;;8.30;83.94
15195;BME280;7698;42.478;23.756;2023-02-20T01:49:43;93582.53;;;8.29;84.20
15195;BME280;7698;42.478;23.756;2023-02-20T01:52:13;93593.63;;;8.26;85.08
15195;BME280;7698;42.478;23.756;2023-02-20T01:54:42;93577.66;;;8.26;85.77
15195;BME280;7698;42.478;23.756;2023-02-20T01:57:14;93578.25;;;8.28;86.18
15195;BME280;7698;42.478;23.756;2023-02-20T01:59:43;93573.53;;;8.30;86.41
15195;BME280;7698;42.478;23.756;2023-02-20T02:02:11;93584.19;;;8.30;86.50
15195;BME280;7698;42.478;23.756;2023-02-20T02:04:40;93578.63;;;8.32;86.81
15195;BME280;7698;42.478;23.756;2023-02-20T02:07:09;93591.09;;;8.38;87.04
15195;BME280;7698;42.478;23.756;2023-02-20T02:09:41;93584.09;;;8.43;87.06
15195;BME280;7698;42.478;23.756;2023-02-20T02:12:11;93606.13;;;8.51;86.96
15195;BME280;7698;42.478;23.756;2023-02-20T02:14:38;93591.94;;;8.57;86.72
15195;BME280;7698;42.478;23.756;2023-02-20T02:17:33;93599.84;;;8.63;86.21
15195;BME280;7698;42.478;23.756;2023-02-20T02:20:37;93606.75;;;8.71;86.13
15195;BME280;7698;42.478;23.756;2023-02-20T02:26:31;93606.16;;;8.87;86.45
15195;BME280;7698;42.478;23.756;2023-02-20T02:29:21;93611.03;;;8.90;85.88
15195;BME280;7698;42.478;23.756;2023-02-20T02:32:17;93609.41;;;8.89;85.53
15195;BME280;7698;42.478;23.756;2023-02-20T02:35:20;93618.00;;;8.91;84.44
15195;BME280;7698;42.478;23.756;2023-02-20T02:38:00;93615.94;;;8.93;83.43
15195;BME280;7698;42.478;23.756;2023-02-20T02:40:37;93623.47;;;8.96;82.38
15195;BME280;7698;42.478;23.756;2023-02-20T02:43:10;93605.66;;;8.97;80.93
15195;BME280;7698;42.478;23.756;2023-02-20T02:45:44;93607.50;;;8.96;79.65
15195;BME280;7698;42.478;23.756;2023-02-20T02:48:19;93617.56;;;8.94;77.87
15195;BME280;7698;42.478;23.756;2023-02-20T02:50:48;93630.88;;;8.94;76.32
15195;BME280;7698;42.478;23.756;2023-02-20T02:53:18;93618.59;;;8.93;75.38
15195;BME280;7698;42.478;23.756;2023-02-20T02:55:45;93621.69;;;8.90;74.83
15195;BME280;7698;42.478;23.756;2023-02-20T02:58:13;93626.22;;;8.90;74.43
15195;BME280;7698;42.478;23.756;2023-02-20T03:00:43;93635.88;;;8.84;74.60
15195;BME280;7698;42.478;23.756;2023-02-20T03:03:15;93647.88;;;8.75;74.31
15195;BME280;7698;42.478;23.756;2023-02-20T03:05:48;93649.41;;;8.64;74.75
15195;BME280;7698;42.478;23.756;2023-02-20T03:08:23;93647.44;;;8.53;75.56
15195;BME280;7698;42.478;23.756;2023-02-20T03:10:59;93650.84;;;8.42;76.64
15195;BME280;7698;42.478;23.756;2023-02-20T03:13:42;93646.00;;;8.32;77.24
15195;BME280;7698;42.478;23.756;2023-02-20T03:16:31;93657.06;;;8.23;78.10
15195;BME280;7698;42.478;23.756;2023-02-20T03:19:00;93651.63;;;8.18;78.29
15195;BME280;7698;42.478;23.756;2023-02-20T03:21:30;93668.44;;;8.11;78.89
15195;BME280;7698;42.478;23.756;2023-02-20T03:24:00;93677.03;;;8.07;78.63
15195;BME280;7698;42.478;23.756;2023-02-20T03:26:31;93688.16;;;7.97;78.85
15195;BME280;7698;42.478;23.756;2023-02-20T03:29:02;93683.09;;;7.89;78.99
15195;BME280;7698;42.478;23.756;2023-02-20T03:31:37;93688.66;;;7.81;79.92
15195;BME280;7698;42.478;23.756;2023-02-20T03:34:08;93701.16;;;7.74;79.95
15195;BME280;7698;42.478;23.756;2023-02-20T03:36:59;93709.97;;;7.68;80.68
15195;BME280;7698;42.478;23.756;2023-02-20T03:39:48;93718.59;;;7.63;82.03
15195;BME280;7698;42.478;23.756;2023-02-20T03:42:36;93710.25;;;7.60;81.82
15195;BME280;7698;42.478;23.756;2023-02-20T03:45:22;93715.16;;;7.56;82.51
15195;BME280;7698;42.478;23.756;2023-02-20T03:47:54;93723.34;;;7.48;82.50
15195;BME280;7698;42.478;23.756;2023-02-20T03:50:24;93709.88;;;7.43;82.78
15195;BME280;7698;42.478;23.756;2023-02-20T03:53:09;93703.81;;;7.36;82.97
15195;BME280;7698;42.478;23.756;2023-02-20T03:55:37;93716.47;;;7.34;84.05
15195;BME280;7698;42.478;23.756;2023-02-20T03:58:07;93706.47;;;7.29;84.54
15195;BME280;7698;42.478;23.756;2023-02-20T04:00:37;93706.47;;;7.29;84.33
15195;BME280;7698;42.478;23.756;2023-02-20T04:03:09;93714.03;;;7.26;85.22
15195;BME280;7698;42.478;23.756;2023-02-20T04:05:43;93710.78;;;7.24;84.72
15195;BME280;7698;42.478;23.756;2023-02-20T04:08:13;93717.53;;;7.20;85.71
15195;BME280;7698;42.478;23.756;2023-02-20T04:10:51;93713.66;;;7.16;85.58
15195;BME280;7698;42.478;23.756;2023-02-20T04:13:19;93708.59;;;7.07;85.14
15195;BME280;7698;42.478;23.756;2023-02-20T04:15:47;93705.94;;;7.01;86.24
15195;BME280;7698;42.478;23.756;2023-02-20T04:18:16;93707.16;;;6.98;86.15
15195;BME280;7698;42.478;23.756;2023-02-20T04:20:45;93700.22;;;6.97;87.01
15195;BME280;7698;42.478;23.756;2023-02-20T04:23:14;93719.00;;;6.96;86.63
15195;BME280;7698;42.478;23.756;2023-02-20T04:25:45;93728.22;;;6.93;86.59
15195;BME280;7698;42.478;23.756;2023-02-20T04:28:14;93727.59;;;6.91;86.83
15195;BME280;7698;42.478;23.756;2023-02-20T04:30:42;93714.53;;;6.90;86.63
15195;BME280;7698;42.478;23.756;2023-02-20T04:33:10;93725.16;;;6.90;86.92
15195;BME280;7698;42.478;23.756;2023-02-20T04:35:38;93727.19;;;6.88;87.15
15195;BME280;7698;42.478;23.756;2023-02-20T04:38:05;93715.16;;;6.85;86.95
15195;BME280;7698;42.478;23.756;2023-02-20T04:40:32;93708.66;;;6.81;87.43
15195;BME280;7698;42.478;23.756;2023-02-20T04:43:01;93725.59;;;6.80;88.06
15195;BME280;7698;42.478;23.756;2023-02-20T04:45:27;93717.22;;;6.83;87.67
15195;BME280;7698;42.478;23.756;2023-02-20T04:47:54;93728.22;;;6.87;87.27
15195;BME280;7698;42.478;23.756;2023-02-20T04:50:25;93726.00;;;6.84;86.00
15195;BME280;7698;42.478;23.756;2023-02-20T04:52:52;93731.72;;;6.81;85.95
15195;BME280;7698;42.478;23.756;2023-02-20T04:55:19;93748.25;;;6.76;86.41
15195;BME280;7698;42.478;23.756;2023-02-20T04:57:46;93752.31;;;6.72;86.20
15195;BME280;7698;42.478;23.756;2023-02-20T05:00:17;93750.69;;;6.64;85.94
15195;BME280;7698;42.478;23.756;2023-02-20T05:02:45;93768.84;;;6.61;85.64
15195;BME280;7698;42.478;23.756;2023-02-20T05:05:15;93767.63;;;6.57;85.54
15195;BME280;7698;42.478;23.756;2023-02-20T05:07:44;93782.75;;;6.56;85.91
15195;BME280;7698;42.478;23.756;2023-02-20T05:10:13;93788.25;;;6.55;85.40
15195;BME280;7698;42.478;23.756;2023-02-20T05:12:40;93793.34;;;6.50;85.07
15195;BME280;7698;42.478;23.756;2023-02-20T05:15:08;93801.31;;;6.50;84.87
15195;BME280;7698;42.478;23.756;2023-02-20T05:17:36;93800.09;;;6.52;84.97
15195;BME280;7698;42.478;23.756;2023-02-20T05:20:04;93810.69;;;6.59;85.40
15195;BME280;7698;42.478;23.756;2023-02-20T05:22:31;93813.16;;;6.67;84.94
15195;BME280;7698;42.478;23.756;2023-02-20T05:24:57;93813.75;;;6.69;84.48
15195;BME280;7698;42.478;23.756;2023-02-20T05:27:25;93807.22;;;6.71;85.01
15195;BME280;7698;42.478;23.756;2023-02-20T05:29:53;93805.19;;;6.73;84.27
15195;BME280;7698;42.478;23.756;2023-02-20T05:32:22;93807.25;;;6.78;84.67
15195;BME280;7698;42.478;23.756;2023-02-20T05:34:51;93823.13;;;6.85;84.23
15195;BME280;7698;42.478;23.756;2023-02-20T05:37:20;93825.19;;;6.89;84.14
15195;BME280;7698;42.478;23.756;2023-02-20T05:39:47;93828.06;;;6.94;83.92
15195;BME280;7698;42.478;23.756;2023-02-20T05:42:15;93815.59;;;7.01;83.27
15195;BME280;7698;42.478;23.756;2023-02-20T05:44:42;93831.53;;;7.08;81.98
15195;BME280;7698;42.478;23.756;2023-02-20T05:47:09;93839.47;;;7.14;81.67
15195;BME280;7698;42.478;23.756;2023-02-20T05:49:36;93828.84;;;7.28;80.84
15195;BME280;7698;42.478;23.756;2023-02-20T05:52:05;93825.53;;;7.59;80.04
15195;BME280;7698;42.478;23.756;2023-02-20T05:54:36;93832.72;;;8.03;77.53
15195;BME280;7698;42.478;23.756;2023-02-20T05:57:03;93823.38;;;8.38;74.00
15195;BME280;7698;42.478;23.756;2023-02-20T05:59:30;93815.41;;;9.01;71.44
15195;BME280;7698;42.478;23.756;2023-02-20T06:01:57;93832.38;;;9.87;67.47
15195;BME280;7698;42.478;23.756;2023-02-20T06:04:24;93842.16;;;10.47;63.64
15195;BME280;7698;42.478;23.756;2023-02-20T06:06:51;93848.38;;;11.01;60.44
15195;BME280;7698;42.478;23.756;2023-02-20T06:09:19;93842.19;;;11.54;58.45
15195;BME280;7698;42.478;23.756;2023-02-20T06:11:50;93843.31;;;12.28;55.86
15195;BME280;7698;42.478;23.756;2023-02-20T06:14:19;93847.50;;;13.21;52.91
15195;BME280;7698;42.478;23.756;2023-02-20T06:16:47;93846.06;;;14.19;49.86
15195;BME280;7698;42.478;23.756;2023-02-20T06:19:17;93859.06;;;15.19;48.03
15195;BME280;7698;42.478;23.756;2023-02-20T06:21:47;93858.66;;;15.97;43.55
15195;BME280;7698;42.478;23.756;2023-02-20T06:24:14;93865.38;;;16.83;43.09
15195;BME280;7698;42.478;23.756;2023-02-20T06:26:42;93874.50;;;17.75;40.25
15195;BME280;7698;42.478;23.756;2023-02-20T06:29:10;93862.84;;;18.20;37.61
15195;BME280;7698;42.478;23.756;2023-02-20T06:31:37;93861.91;;;18.76;36.95
15195;BME280;7698;42.478;23.756;2023-02-20T06:34:04;93874.00;;;19.48;36.79
15195;BME280;7698;42.478;23.756;2023-02-20T06:36:34;93868.22;;;20.04;34.82
15195;BME280;7698;42.478;23.756;2023-02-20T06:39:01;93867.84;;;20.49;32.85
15195;BME280;7698;42.478;23.756;2023-02-20T06:41:28;93858.28;;;20.52;31.11
15195;BME280;7698;42.478;23.756;2023-02-20T06:43:56;93876.69;;;20.26;31.11
15195;BME280;7698;42.478;23.756;2023-02-20T06:46:23;93887.03;;;20.24;31.10
15195;BME280;7698;42.478;23.756;2023-02-20T06:48:51;93877.16;;;20.38;30.27
15195;BME280;7698;42.478;23.756;2023-02-20T06:51:20;93870.66;;;20.34;30.15
15195;BME280;7698;42.478;23.756;2023-02-20T06:53:47;93870.88;;;20.43;30.45
15195;BME280;7698;42.478;23.756;2023-02-20T06:56:15;93866.78;;;20.69;30.42
15195;BME280;7698;42.478;23.756;2023-02-20T06:58:45;93872.69;;;21.00;29.76
15195;BME280;7698;42.478;23.756;2023-02-20T07:01:14;93862.03;;;20.80;28.91
15195;BME280;7698;42.478;23.756;2023-02-20T07:03:41;93857.78;;;20.74;30.26
15195;BME280;7698;42.478;23.756;2023-02-20T07:06:09;93875.19;;;21.15;30.05
15195;BME280;7698;42.478;23.756;2023-02-20T07:08:37;93865.00;;;21.50;27.88
15195;BME280;7698;42.478;23.756;2023-02-20T07:11:03;93874.06;;;21.21;27.97
15195;BME280;7698;42.478;23.756;2023-02-20T07:13:31;93869.91;;;20.81;28.70
15195;BME280;7698;42.478;23.756;2023-02-20T07:15:57;93884.25;;;20.29;28.30
15195;BME280;7698;42.478;23.756;2023-02-20T07:18:26;93883.56;;;19.40;29.30
15195;BME280;7698;42.478;23.756;2023-02-20T07:20:53;93883.78;;;18.89;30.71
15195;BME280;7698;42.478;23.756;2023-02-20T07:23:20;93880.63;;;18.52;31.17
15195;BME280;7698;42.478;23.756;2023-02-20T07:25:48;93881.72;;;18.41;30.86
15195;BME280;7698;42.478;23.756;2023-02-20T07:28:15;93885.84;;;17.92;31.59
15195;BME280;7698;42.478;23.756;2023-02-20T07:30:43;93884.44;;;17.59;32.47
15195;BME280;7698;42.478;23.756;2023-02-20T07:33:10;93893.34;;;17.60;32.55
15195;BME280;7698;42.478;23.756;2023-02-20T07:35:39;93885.56;;;17.79;32.94
15195;BME280;7698;42.478;23.756;2023-02-20T07:38:06;93885.56;;;17.79;32.80
15195;BME280;7698;42.478;23.756;2023-02-20T07:40:33;93884.75;;;17.88;32.60
15195;BME280;7698;42.478;23.756;2023-02-20T07:43:00;93890.69;;;17.80;32.62
15195;BME280;7698;42.478;23.756;2023-02-20T07:45:28;93893.94;;;17.92;32.90
15195;BME280;7698;42.478;23.756;2023-02-20T07:47:55;93882.88;;;17.69;32.60
15195;BME280;7698;42.478;23.756;2023-02-20T07:50:22;93886.88;;;17.61;33.13
15195;BME280;7698;42.478;23.756;2023-02-20T07:52:51;93879.84;;;17.55;32.73
15195;BME280;7698;42.478;23.756;2023-02-20T07:55:18;93875.78;;;17.57;32.62
15195;BME280;7698;42.478;23.756;2023-02-20T07:57:46;93869.56;;;17.52;32.35
15195;BME280;7698;42.478;23.756;2023-02-20T08:00:16;93871.19;;;17.38;31.61
15195;BME280;7698;42.478;23.756;2023-02-20T08:02:44;93874.09;;;17.11;31.48
15195;BME280;7698;42.478;23.756;2023-02-20T08:05:12;93871.16;;;17.27;32.59
15195;BME280;7698;42.478;23.756;2023-02-20T08:07:44;93871.19;;;17.38;31.48
15195;BME280;7698;42.478;23.756;2023-02-20T08:10:14;93870.06;;;17.13;30.88
15195;BME280;7698;42.478;23.756;2023-02-20T08:12:41;93880.19;;;16.81;31.41
15195;BME280;7698;42.478;23.756;2023-02-20T08:15:09;93877.09;;;16.57;31.46
15195;BME280;7698;42.478;23.756;2023-02-20T08:17:37;93882.94;;;16.44;31.95
15195;BME280;7698;42.478;23.756;2023-02-20T08:20:06;93879.59;;;16.64;31.85
15195;BME280;7698;42.478;23.756;2023-02-20T08:22:34;93877.00;;;16.99;32.37
15195;BME280;7698;42.478;23.756;2023-02-20T08:25:01;93876.56;;;17.22;31.35
15195;BME280;7698;42.478;23.756;2023-02-20T08:27:32;93879.84;;;17.45;31.63
15195;BME280;7698;42.478;23.756;2023-02-20T08:30:03;93886.31;;;17.49;30.80
15195;BME280;7698;42.478;23.756;2023-02-20T08:32:30;93873.03;;;17.17;30.73
15195;BME280;7698;42.478;23.756;2023-02-20T08:34:58;93878.13;;;17.08;31.48
15195;BME280;7698;42.478;23.756;2023-02-20T08:37:25;93884.13;;;17.31;31.35
15195;BME280;7698;42.478;23.756;2023-02-20T08:39:52;93889.06;;;17.69;31.45
15195;BME280;7698;42.478;23.756;2023-02-20T08:42:19;93876.66;;;17.88;30.41
15195;BME280;7698;42.478;23.756;2023-02-20T08:44:48;93889.63;;;18.02;30.34
15195;BME280;7698;42.478;23.756;2023-02-20T08:47:18;93879.34;;;17.99;30.43
15195;BME280;7698;42.478;23.756;2023-02-20T08:49:45;93884.22;;;17.97;29.99
15195;BME280;7698;42.478;23.756;2023-02-20T08:52:13;93889.34;;;17.98;30.64
15195;BME280;7698;42.478;23.756;2023-02-20T08:54:43;93888.78;;;17.81;29.96
15195;BME280;7698;42.478;23.756;2023-02-20T08:57:11;93877.19;;;17.65;30.25
15195;BME280;7698;42.478;23.756;2023-02-20T08:59:39;93887.94;;;17.60;30.46
15195;BME280;7698;42.478;23.756;2023-02-20T09:02:08;93884.41;;;17.54;30.61
15195;BME280;7698;42.478;23.756;2023-02-20T09:04:42;93893.88;;;17.57;30.11
15195;BME280;7698;42.478;23.756;2023-02-20T09:07:09;93883.34;;;17.60;30.87
15195;BME280;7698;42.478;23.756;2023-02-20T09:09:36;93894.22;;;17.91;30.35
15195;BME280;7698;42.478;23.756;2023-02-20T09:12:04;93873.41;;;18.02;29.56
15195;BME280;7698;42.478;23.756;2023-02-20T09:14:31;93879.63;;;18.02;30.34
15195;BME280;7698;42.478;23.756;2023-02-20T09:16:58;93873.94;;;18.19;30.13
15195;BME280;7698;42.478;23.756;2023-02-20T09:19:27;93880.91;;;18.35;29.89
15195;BME280;7698;42.478;23.756;2023-02-20T09:21:53;93884.16;;;18.42;29.36
15195;BME280;7698;42.478;23.756;2023-02-20T09:24:21;93883.63;;;18.45;29.29
15195;BME280;7698;42.478;23.756;2023-02-20T09:26:48;93878.19;;;18.66;29.95
15195;BME280;7698;42.478;23.756;2023-02-20T09:29:15;93900.81;;;18.90;29.45
15195;BME280;7698;42.478;23.756;2023-02-20T09:31:42;93880.78;;;18.91;28.74
15195;BME280;7698;42.478;23.756;2023-02-20T09:34:09;93881.84;;;18.95;28.65
15195;BME280;7698;42.478;23.756;2023-02-20T09:36:37;93896.53;;;18.79;28.74
15195;BME280;7698;42.478;23.756;2023-02-20T09:39:04;93896.00;;;18.82;29.38
15195;BME280;7698;42.478;23.756;2023-02-20T09:41:44;93903.19;;;19.12;28.29
15195;BME280;7698;42.478;23.756;2023-02-20T09:44:20;93899.16;;;19.04;27.70
15195;BME280;7698;42.478;23.756;2023-02-20T09:46:52;93901.84;;;19.09;28.64
15195;BME280;7698;42.478;23.756;2023-02-20T09:49:23;93897.81;;;19.02;28.30
15195;BME280;7698;42.478;23.756;2023-02-20T09:51:55;93907.31;;;18.89;29.01
15195;BME280;7698;42.478;23.756;2023-02-20T09:54:26;93914.13;;;18.81;28.43
15195;BME280;7698;42.478;23.756;2023-02-20T09:56:57;93913.88;;;18.78;28.92
15195;BME280;7698;42.478;23.756;2023-02-20T09:59:28;93902.97;;;18.93;29.05
15195;BME280;7698;42.478;23.756;2023-02-20T10:01:58;93895.56;;;19.19;29.22
15195;BME280;7698;42.478;23.756;2023-02-20T10:04:30;93906.06;;;19.36;28.45
15195;BME280;7698;42.478;23.756;2023-02-20T10:07:07;93886.31;;;19.25;28.13
15195;BME280;7698;42.478;23.756;2023-02-20T10:09:37;93896.31;;;19.30;29.19
15195;BME280;7698;42.478;23.756;2023-02-20T10:12:10;93898.66;;;19.51;28.75
15195;BME280;7698;42.478;23.756;2023-02-20T10:15:02;93883.59;;;19.74;29.08
15195;BME280;7698;42.478;23.756;2023-02-20T10:17:39;93891.31;;;19.62;27.75
15195;BME280;7698;42.478;23.756;2023-02-20T10:20:12;93886.59;;;19.28;27.89
15195;BME280;7698;42.478;23.756;2023-02-20T10:22:48;93879.13;;;19.00;28.52
15195;BME280;7698;42.478;23.756;2023-02-20T10:25:24;93883.75;;;19.00;28.43
15195;BME280;7698;42.478;23.756;2023-02-20T10:27:53;93888.28;;;19.14;28.74
15195;BME280;7698;42.478;23.756;2023-02-20T10:30:26;93882.75;;;19.35;28.84
15195;BME280;7698;42.478;23.756;2023-02-20T10:32:59;93880.31;;;19.38;28.94
15195;BME280;7698;42.478;23.756;2023-02-20T10:35:32;93880.78;;;19.45;28.85
15195;BME280;7698;42.478;23.756;2023-02-20T10:38:07;93878.91;;;19.51;28.32
15195;BME280;7698;42.478;23.756;2023-02-20T10:40:38;93865.00;;;19.63;28.83
15195;BME280;7698;42.478;23.756;2023-02-20T10:43:13;93880.53;;;19.91;28.34
15195;BME280;7698;42.478;23.756;2023-02-20T10:45:48;93863.97;;;19.92;28.15
15195;BME280;7698;42.478;23.756;2023-02-20T10:48:17;93860.47;;;20.21;28.43
15195;BME280;7698;42.478;23.756;2023-02-20T10:50:49;93854.31;;;20.44;27.77
15195;BME280;7698;42.478;23.756;2023-02-20T10:53:23;93844.31;;;20.64;28.35
15195;BME280;7698;42.478;23.756;2023-02-20T10:55:55;93831.50;;;20.93;27.93
15195;BME280;7698;42.478;23.756;2023-02-20T10:58:28;93833.41;;;20.92;27.20
15195;BME280;7698;42.478;23.756;2023-02-20T11:00:59;93842.13;;;20.66;26.33
15195;BME280;7698;42.478;23.756;2023-02-20T11:03:35;93835.38;;;20.39;26.43
15195;BME280;7698;42.478;23.756;2023-02-20T11:06:05;93833.28;;;20.26;25.99
15195;BME280;7698;42.478;23.756;2023-02-20T11:08:36;93833.41;;;20.16;25.89
15195;BME280;7698;42.478;23.756;2023-02-20T11:11:18;93835.91;;;20.07;25.70
15195;BME280;7698;42.478;23.756;2023-02-20T11:13:46;93839.44;;;20.08;25.83
15195;BME280;7698;42.478;23.756;2023-02-20T11:16:23;93832.78;;;20.24;25.08
15195;BME280;7698;42.478;23.756;2023-02-20T11:19:01;93821.31;;;20.32;24.64
15195;BME280;7698;42.478;23.756;2023-02-20T11:21:37;93831.06;;;20.33;25.64
15195;BME280;7698;42.478;23.756;2023-02-20T11:24:19;93831.66;;;20.54;25.34
15195;BME280;7698;42.478;23.756;2023-02-20T11:26:47;93839.88;;;20.49;25.53
15195;BME280;7698;42.478;23.756;2023-02-20T11:29:18;93841.06;;;20.38;25.37
15195;BME280;7698;42.478;23.756;2023-02-20T11:31:46;93835.09;;;20.36;25.38
15195;BME280;7698;42.478;23.756;2023-02-20T11:34:16;93841.00;;;20.14;24.36
15195;BME280;7698;42.478;23.756;2023-02-20T11:36:46;93840.13;;;19.94;24.83
15195;BME280;7698;42.478;23.756;2023-02-20T11:39:21;93837.63;;;20.27;24.64
15195;BME280;7698;42.478;23.756;2023-02-20T11:42:02;93832.66;;;20.39;24.66
15195;BME280;7698;42.478;23.756;2023-02-20T11:44:30;93835.88;;;20.12;23.99
15195;BME280;7698;42.478;23.756;2023-02-20T11:47:17;93854.75;;;19.93;24.35
15195;BME280;7698;42.478;23.756;2023-02-20T11:49:45;93841.88;;;19.75;23.69
15195;BME280;7698;42.478;23.756;2023-02-20T11:52:17;93848.06;;;19.81;24.17
15195;BME280;7698;42.478;23.756;2023-02-20T11:54:46;93840.84;;;20.00;24.50
15195;BME280;7698;42.478;23.756;2023-02-20T11:57:23;93855.69;;;20.08;24.39
15195;BME280;7698;42.478;23.756;2023-02-20T12:00:08;93853.00;;;20.08;24.37
15195;BME280;7698;42.478;23.756;2023-02-20T12:02:35;93846.16;;;20.15;24.41
15195;BME280;7698;42.478;23.756;2023-02-20T12:05:10;93841.44;;;20.26;25.34
15195;BME280;7698;42.478;23.756;2023-02-20T12:07:42;93837.00;;;20.06;24.75
15195;BME280;7698;42.478;23.756;2023-02-20T12:10:19;93848.09;;;19.76;25.68
15195;BME280;7698;42.478;23.756;2023-02-20T12:12:47;93836.81;;;19.69;26.83
15195;BME280;7698;42.478;23.756;2023-02-20T12:15:16;93829.09;;;19.81;26.56
15195;BME280;7698;42.478;23.756;2023-02-20T12:17:56;93829.72;;;20.02;25.76
15195;BME280;7698;42.478;23.756;2023-02-20T12:20:28;93829.88;;;20.15;25.77
15195;BME280;7698;42.478;23.756;2023-02-20T12:23:04;93837.25;;;20.10;25.33
15195;BME280;7698;42.478;23.756;2023-02-20T12:25:45;93835.63;;;19.80;25.06
15195;BME280;7698;42.478;23.756;2023-02-20T12:28:21;93832.38;;;19.39;24.87
15195;BME280;7698;42.478;23.756;2023-02-20T12:31:02;93841.66;;;19.22;25.72
15195;BME280;7698;42.478;23.756;2023-02-20T12:33:42;93836.75;;;19.30;26.50
15195;BME280;7698;42.478;23.756;2023-02-20T12:36:25;93836.34;;;19.07;27.73
15195;BME280;7698;42.478;23.756;2023-02-20T12:38:57;93834.19;;;19.04;28.29
15195;BME280;7698;42.478;23.756;2023-02-20T12:41:42;93827.03;;;19.23;28.77
15195;BME280;7698;42.478;23.756;2023-02-20T12:44:27;93838.41;;;19.25;27.73
15195;BME280;7698;42.478;23.756;2023-02-20T12:47:03;93841.09;;;19.25;28.40
15195;BME280;7698;42.478;23.756;2023-02-20T12:49:52;93847.59;;;19.30;28.35
15195;BME280;7698;42.478;23.756;2023-02-20T12:52:37;93842.13;;;19.40;28.64
15195;BME280;7698;42.478;23.756;2023-02-20T12:55:14;93844.84;;;19.35;27.92
15195;BME280;7698;42.478;23.756;2023-02-20T12:57:56;93831.38;;;19.24;28.29
15195;BME280;7698;42.478;23.756;2023-02-20T13:00:30;93832.22;;;19.15;28.66
15195;BME280;7698;42.478;23.756;2023-02-20T13:03:05;93825.50;;;19.12;28.47
15195;BME280;7698;42.478;23.756;2023-02-20T13:05:36;93822.56;;;19.04;28.46
15195;BME280;7698;42.478;23.756;2023-02-20T13:08:10;93834.16;;;19.09;28.60
15195;BME280;7698;42.478;23.756;2023-02-20T13:10:49;93820.97;;;18.98;28.44
15195;BME280;7698;42.478;23.756;2023-02-20T13:13:19;93814.03;;;18.76;28.40
15195;BME280;7698;42.478;23.756;2023-02-20T13:15:51;93804.06;;;18.67;28.42
15195;BME280;7698;42.478;23.756;2023-02-20T13:18:30;93814.38;;;18.59;28.47
15195;BME280;7698;42.478;23.756;2023-02-20T13:21:01;93815.47;;;18.43;28.21
15195;BME280;7698;42.478;23.756;2023-02-20T13:23:31;93819.53;;;18.36;28.63
15195;BME280;7698;42.478;23.756;2023-02-20T13:25:59;93831.75;;;18.28;28.82
15195;BME280;7698;42.478;23.756;2023-02-20T13:28:36;93838.25;;;18.27;29.13